Time;durP1;ratioP1;P1;durP2;ratioP2;P2;SDS_P1;SDS_P2;PMS_P1;PMS_P2;Temp;Humidity;BMP_temperature;BMP_pressure;BME280_temperature;BME280_humidity;BME280_pressure;Samples;Min_cycle;Max_cycle;Signal;HPM_P1;HPM_P2
2021/12/13 00:01:38;;;;;;;6.93;5.33;;;1.50;83.70;;;;;;6210497;28;20188;-69
2021/12/13 00:04:44;;;;;;;9.37;5.83;;;1.40;84.40;;;;;;6211552;28;20683;-69
2021/12/13 00:07:54;;;;;;;7.80;6.60;;;1.40;84.00;;;;;;6223096;28;20217;-69
2021/12/13 00:11:01;;;;;;;8.00;5.63;;;1.50;82.60;;;;;;6233654;28;20217;-71
2021/12/13 00:14:13;;;;;;;7.50;5.43;;;1.50;83.00;;;;;;6235281;28;20241;-71
2021/12/13 00:17:40;;;;;;;9.10;5.40;;;1.50;82.40;;;;;;6250525;28;20190;-72
2021/12/13 00:20:48;;;;;;;6.60;4.50;;;1.50;83.30;;;;;;6245338;28;20195;-71
2021/12/13 00:24:00;;;;;;;8.23;4.83;;;1.50;83.80;;;;;;6214390;28;20287;-71
2021/12/13 00:27:19;;;;;;;9.03;6.03;;;1.50;82.80;;;;;;6202403;28;20183;-71
2021/12/13 00:30:26;;;;;;;8.70;6.00;;;1.50;83.30;;;;;;6217695;28;20196;-67
2021/12/13 00:34:01;;;;;;;6.57;5.37;;;1.50;83.30;;;;;;6227349;28;20218;-67
2021/12/13 00:37:14;;;;;;;9.73;7.00;;;1.40;84.00;;;;;;6193836;28;20225;-70
2021/12/13 00:40:22;;;;;;;8.73;6.10;;;1.40;83.50;;;;;;6223473;28;20209;-70
2021/12/13 00:43:53;;;;;;;9.83;6.43;;;1.40;83.90;;;;;;6234941;28;20191;-70
2021/12/13 00:46:56;;;;;;;8.60;6.30;;;1.40;83.80;;;;;;6199164;28;20206;-70
2021/12/13 00:50:11;;;;;;;7.10;5.57;;;1.50;83.40;;;;;;6233407;28;20194;-70
2021/12/13 00:53:17;;;;;;;9.17;6.00;;;1.50;83.50;;;;;;6234521;28;20177;-70
2021/12/13 00:56:49;;;;;;;8.97;6.00;;;1.40;83.90;;;;;;6208639;28;20256;-70
2021/12/13 01:00:05;;;;;;;7.20;5.63;;;1.40;83.80;;;;;;6178403;28;20731;-70
2021/12/13 01:03:37;;;;;;;9.17;6.27;;;1.40;84.70;;;;;;6185250;28;20199;-70
2021/12/13 01:07:15;;;;;;;9.60;6.67;;;1.40;84.10;;;;;;6229821;28;20216;-70
2021/12/13 01:10:38;;;;;;;7.53;6.23;;;1.50;83.40;;;;;;6226700;28;20185;-70
2021/12/13 01:13:53;;;;;;;7.80;6.03;;;1.50;83.30;;;;;;6243532;28;20172;-70
2021/12/13 01:20:43;;;;;;;8.20;6.10;;;1.50;83.60;;;;;;6219711;28;20187;-70
2021/12/13 01:23:50;;;;;;;6.93;5.30;;;1.40;83.60;;;;;;6194472;28;20195;-70
2021/12/13 01:26:53;;;;;;;5.63;4.80;;;1.50;84.50;;;;;;6218100;28;20226;-70
2021/12/13 01:29:54;;;;;;;7.10;4.63;;;1.40;84.50;;;;;;6210145;28;20192;-70
2021/12/13 01:32:57;;;;;;;7.13;4.20;;;1.40;84.00;;;;;;6200224;28;20208;-70
2021/12/13 01:36:06;;;;;;;8.43;4.33;;;1.50;84.20;;;;;;6201551;28;20206;-70
2021/12/13 01:39:12;;;;;;;7.07;4.70;;;1.50;84.10;;;;;;6236257;28;20215;-70
2021/12/13 01:42:33;;;;;;;7.37;4.17;;;1.50;84.50;;;;;;6210702;28;20172;-69
2021/12/13 01:45:37;;;;;;;5.77;4.60;;;1.50;83.40;;;;;;6193632;28;20289;-70
2021/12/13 01:48:41;;;;;;;5.30;4.10;;;1.60;83.90;;;;;;6209193;28;20191;-70
2021/12/13 01:51:42;;;;;;;6.23;3.87;;;1.60;82.40;;;;;;6201521;28;20199;-70
2021/12/13 01:54:44;;;;;;;7.37;4.47;;;1.60;82.20;;;;;;6209694;28;20222;-69
2021/12/13 01:57:50;;;;;;;7.87;5.53;;;1.80;81.70;;;;;;6194429;28;20263;-68
2021/12/13 02:01:11;;;;;;;7.50;5.27;;;1.70;82.70;;;;;;6201299;28;20207;-69
2021/12/13 02:04:14;;;;;;;6.87;5.23;;;1.70;82.20;;;;;;6220363;28;20679;-69
2021/12/13 02:07:14;;;;;;;7.97;4.70;;;1.60;83.60;;;;;;6223231;28;20195;-70
2021/12/13 02:10:21;;;;;;;7.20;4.97;;;1.60;82.60;;;;;;6206632;28;20195;-70
2021/12/13 02:13:41;;;;;;;10.30;6.07;;;1.70;81.80;;;;;;6233064;28;20190;-70
2021/12/13 02:17:23;;;;;;;8.97;5.90;;;1.70;81.50;;;;;;6223392;28;20201;-68
2021/12/13 02:20:50;;;;;;;7.90;5.87;;;1.70;82.20;;;;;;6231394;28;20236;-68
2021/12/13 02:23:55;;;;;;;7.53;5.87;;;1.60;83.10;;;;;;6199257;28;20237;-68
2021/12/13 02:26:59;;;;;;;7.67;5.53;;;1.70;82.50;;;;;;6225215;28;20214;-68
2021/12/13 02:30:07;;;;;;;8.23;6.07;;;1.60;84.00;;;;;;6225236;28;20179;-66
2021/12/13 02:33:13;;;;;;;9.67;6.20;;;1.70;82.50;;;;;;6225376;28;20278;-68
2021/12/13 02:36:23;;;;;;;7.13;5.03;;;1.70;82.30;;;;;;6224789;28;20188;-69
2021/12/13 02:39:28;;;;;;;6.10;4.23;;;1.80;82.40;;;;;;6210933;28;20197;-68
2021/12/13 02:42:30;;;;;;;8.07;5.10;;;1.70;83.20;;;;;;6184507;28;20176;-68
2021/12/13 02:45:42;;;;;;;6.53;5.03;;;1.70;82.60;;;;;;6184270;28;20219;-68
2021/12/13 02:48:55;;;;;;;7.50;5.67;;;1.70;83.20;;;;;;6193284;28;20188;-70
2021/12/13 02:52:05;;;;;;;10.37;4.57;;;1.70;82.20;;;;;;6208133;28;20190;-68
2021/12/13 02:55:12;;;;;;;7.03;4.67;;;1.80;83.90;;;;;;6203795;28;20191;-69
2021/12/13 02:58:18;;;;;;;8.10;5.27;;;1.60;83.10;;;;;;6197104;28;20228;-69
2021/12/13 03:01:28;;;;;;;7.60;4.93;;;1.70;84.20;;;;;;6180519;28;20192;-69
2021/12/13 03:04:29;;;;;;;7.33;4.97;;;1.70;84.80;;;;;;6183677;28;20342;-69
2021/12/13 03:07:35;;;;;;;6.30;5.00;;;1.80;84.40;;;;;;6208088;28;20199;-69
2021/12/13 03:10:40;;;;;;;7.03;4.77;;;1.60;83.70;;;;;;6203856;28;20187;-70
2021/12/13 03:13:42;;;;;;;5.30;4.40;;;1.60;83.60;;;;;;6175715;28;20184;-68
2021/12/13 03:17:05;;;;;;;5.50;4.57;;;1.70;83.80;;;;;;6176005;28;20192;-70
2021/12/13 03:20:24;;;;;;;6.67;4.83;;;1.80;83.90;;;;;;6159627;28;20189;-70
2021/12/13 03:23:24;;;;;;;6.07;4.13;;;1.80;83.00;;;;;;6192217;28;20203;-70
2021/12/13 03:26:29;;;;;;;5.67;3.47;;;1.80;83.20;;;;;;6177905;28;20216;-70
2021/12/13 03:29:42;;;;;;;4.07;3.53;;;1.80;83.40;;;;;;6207799;28;20186;-70
2021/12/13 03:32:53;;;;;;;5.67;3.33;;;1.80;82.80;;;;;;6159528;28;20186;-69
2021/12/13 03:35:57;;;;;;;4.87;3.13;;;1.80;83.90;;;;;;6186568;28;20295;-69
2021/12/13 03:38:58;;;;;;;6.47;2.90;;;1.80;83.20;;;;;;6188507;28;20179;-69
2021/12/13 03:42:03;;;;;;;5.13;3.57;;;1.80;83.90;;;;;;6177201;28;20265;-69
2021/12/13 03:45:20;;;;;;;7.40;4.77;;;1.80;83.80;;;;;;6196758;28;20214;-71
2021/12/13 03:48:23;;;;;;;7.10;4.90;;;1.80;82.90;;;;;;6164032;28;20235;-71
2021/12/13 03:51:32;;;;;;;7.43;4.67;;;1.80;84.20;;;;;;6164405;28;20212;-69
2021/12/13 03:54:38;;;;;;;6.80;4.73;;;1.80;83.50;;;;;;6185250;28;20224;-68
2021/12/13 03:57:45;;;;;;;6.23;4.50;;;1.80;83.40;;;;;;6211983;28;20236;-68
2021/12/13 04:01:18;;;;;;;9.23;5.93;;;1.80;84.70;;;;;;6211457;28;20278;-69
2021/12/13 04:04:29;;;;;;;9.97;5.07;;;1.80;83.60;;;;;;6230481;28;20282;-69
2021/12/13 04:07:44;;;;;;;6.17;4.70;;;1.80;82.80;;;;;;6235838;28;20183;-69
2021/12/13 04:10:50;;;;;;;6.70;3.97;;;1.80;82.60;;;;;;6215782;28;20180;-69
2021/12/13 04:14:09;;;;;;;7.33;4.67;;;1.80;82.30;;;;;;6233945;28;20233;-70
2021/12/13 04:17:21;;;;;;;8.47;5.10;;;1.80;82.40;;;;;;6251750;28;20192;-70
2021/12/13 04:20:29;;;;;;;4.57;3.40;;;1.80;84.00;;;;;;6216323;28;20240;-75
2021/12/13 04:23:30;;;;;;;4.93;3.47;;;1.80;84.50;;;;;;6216179;28;20191;-75
2021/12/13 04:26:38;;;;;;;5.63;3.97;;;1.80;84.30;;;;;;6243467;28;20213;-76
2021/12/13 04:29:41;;;;;;;4.20;3.10;;;1.80;84.10;;;;;;6218269;28;20219;-76
2021/12/13 04:32:46;;;;;;;5.03;3.20;;;1.70;83.10;;;;;;6209992;28;20273;-75
2021/12/13 04:35:54;;;;;;;3.57;3.00;;;1.70;84.20;;;;;;6233573;28;20222;-76
2021/12/13 04:39:32;;;;;;;4.87;3.57;;;1.70;84.10;;;;;;6267537;28;20254;-75
2021/12/13 04:42:33;;;;;;;3.73;2.80;;;1.70;83.80;;;;;;6202309;28;20199;-74
2021/12/13 04:45:38;;;;;;;5.00;3.23;;;1.70;83.30;;;;;;6198087;28;20306;-74
2021/12/13 04:48:41;;;;;;;3.47;2.63;;;1.70;84.50;;;;;;6241550;28;20395;-75
2021/12/13 04:51:51;;;;;;;3.33;2.70;;;1.70;83.60;;;;;;6228398;28;20187;-76
2021/12/13 04:54:54;;;;;;;3.10;2.80;;;1.80;83.30;;;;;;6231172;28;20200;-77
2021/12/13 04:57:59;;;;;;;3.73;3.03;;;1.80;82.30;;;;;;6218798;28;20283;-75
2021/12/13 05:01:05;;;;;;;3.77;2.80;;;1.70;83.40;;;;;;6186764;28;20239;-75
2021/12/13 05:04:07;;;;;;;3.97;2.90;;;1.70;83.30;;;;;;6207749;28;20210;-76
2021/12/13 05:07:08;;;;;;;3.33;3.03;;;1.60;83.70;;;;;;6226275;28;20202;-76
2021/12/13 05:10:12;;;;;;;2.90;2.60;;;1.70;83.40;;;;;;6226718;28;20189;-76
2021/12/13 05:13:17;;;;;;;3.67;2.70;;;1.70;84.50;;;;;;6226837;28;20191;-76
2021/12/13 05:16:29;;;;;;;4.37;2.60;;;1.70;83.40;;;;;;6210500;28;20202;-76
2021/12/13 05:19:34;;;;;;;2.77;2.53;;;1.70;83.90;;;;;;6203113;28;20183;-76
2021/12/13 05:22:45;;;;;;;4.43;3.27;;;1.60;84.70;;;;;;6226794;28;20184;-77
2021/12/13 05:25:52;;;;;;;3.57;2.73;;;1.60;83.00;;;;;;6234787;28;20239;-76
2021/12/13 05:28:53;;;;;;;2.73;2.43;;;1.70;82.70;;;;;;6209830;28;20194;-75
2021/12/13 05:32:05;;;;;;;3.90;2.67;;;1.70;83.20;;;;;;6210455;28;20192;-77
2021/12/13 05:35:35;;;;;;;2.70;2.03;;;1.70;83.40;;;;;;6210787;28;20195;-76
2021/12/13 05:38:43;;;;;;;2.67;2.20;;;1.70;83.80;;;;;;6216412;28;20187;-76
2021/12/13 05:42:03;;;;;;;2.73;2.30;;;1.70;83.80;;;;;;6207308;28;20187;-76
2021/12/13 05:45:09;;;;;;;3.20;2.43;;;1.60;84.30;;;;;;6211052;28;20235;-76
2021/12/13 05:48:14;;;;;;;3.73;2.67;;;1.60;83.50;;;;;;6212981;28;20242;-76
2021/12/13 05:51:24;;;;;;;5.47;2.87;;;1.70;82.40;;;;;;6228568;28;20186;-76
2021/12/13 05:54:43;;;;;;;4.03;2.87;;;1.60;82.40;;;;;;6207607;28;20199;-76
2021/12/13 05:57:50;;;;;;;3.43;2.80;;;1.60;83.80;;;;;;6216413;28;20243;-78
2021/12/13 06:00:54;;;;;;;3.30;2.90;;;1.70;82.10;;;;;;6209879;28;20278;-76
2021/12/13 06:04:07;;;;;;;3.47;2.87;;;1.70;83.20;;;;;;6234137;28;20187;-76
2021/12/13 06:07:22;;;;;;;3.73;3.27;;;1.70;83.30;;;;;;6210714;28;20214;-76
2021/12/13 06:10:41;;;;;;;3.53;2.70;;;1.70;83.20;;;;;;6208402;28;20266;-76
2021/12/13 06:13:42;;;;;;;3.67;2.77;;;1.70;83.20;;;;;;6238326;28;20257;-76
2021/12/13 06:17:10;;;;;;;3.90;2.80;;;1.70;83.50;;;;;;6223107;28;20187;-76
2021/12/13 06:20:15;;;;;;;3.77;3.10;;;1.70;83.20;;;;;;6189662;28;20275;-70
2021/12/13 06:23:40;;;;;;;4.83;3.20;;;1.80;81.50;;;;;;6205821;28;20212;-72
2021/12/13 06:26:40;;;;;;;4.67;3.13;;;1.70;81.70;;;;;;6209416;28;20239;-72
2021/12/13 06:29:52;;;;;;;4.70;3.20;;;1.80;80.10;;;;;;6197148;28;20196;-71
2021/12/13 06:33:05;;;;;;;4.27;2.37;;;1.80;79.90;;;;;;6224277;28;20232;-72
2021/12/13 06:36:05;;;;;;;3.93;2.90;;;1.80;81.00;;;;;;6222347;28;20279;-74
2021/12/13 06:39:12;;;;;;;3.10;2.77;;;1.80;80.60;;;;;;6211971;28;20194;-74
2021/12/13 06:42:14;;;;;;;4.53;2.93;;;1.70;81.40;;;;;;6220858;28;20238;-72
2021/12/13 06:45:34;;;;;;;3.17;2.63;;;1.80;82.20;;;;;;6224232;28;20237;-72
2021/12/13 06:48:45;;;;;;;3.17;2.60;;;1.70;82.60;;;;;;6208573;28;20194;-72
2021/12/13 06:52:04;;;;;;;4.87;3.13;;;1.70;82.00;;;;;;6206961;28;20233;-72
2021/12/13 06:55:13;;;;;;;3.63;2.50;;;1.80;80.80;;;;;;6207451;28;20196;-73
2021/12/13 06:58:21;;;;;;;3.53;2.77;;;1.80;80.20;;;;;;6249998;28;20239;-72
2021/12/13 07:01:22;;;;;;;3.73;2.47;;;1.90;82.40;;;;;;6230232;28;20191;-72
2021/12/13 07:04:23;;;;;;;5.50;2.87;;;1.90;81.30;;;;;;6212352;28;20215;-73
2021/12/13 07:07:39;;;;;;;3.33;2.90;;;1.90;82.60;;;;;;6213172;28;20202;-72
2021/12/13 07:10:56;;;;;;;5.10;3.30;;;1.90;80.60;;;;;;6229774;28;20236;-72
2021/12/13 07:14:04;;;;;;;3.13;2.83;;;1.90;80.80;;;;;;6218613;28;20191;-72
2021/12/13 07:17:27;;;;;;;3.73;3.13;;;1.90;80.70;;;;;;6222879;28;20175;-72
2021/12/13 07:20:41;;;;;;;3.57;2.93;;;1.90;80.80;;;;;;6206926;28;20195;-72
2021/12/13 07:24:06;;;;;;;3.30;3.00;;;2.00;81.10;;;;;;6203926;28;20192;-72
2021/12/13 07:27:09;;;;;;;3.40;2.87;;;2.00;81.30;;;;;;6203841;28;20191;-72
2021/12/13 07:30:28;;;;;;;2.73;2.53;;;2.10;81.60;;;;;;6221709;28;20194;-72
2021/12/13 07:33:45;;;;;;;3.43;2.80;;;2.00;82.20;;;;;;6207967;28;20199;-72
2021/12/13 07:36:56;;;;;;;4.20;3.20;;;2.00;82.50;;;;;;6222438;28;20188;-72
2021/12/13 07:40:21;;;;;;;3.70;3.30;;;2.10;82.10;;;;;;6230261;28;20214;-72
2021/12/13 07:43:38;;;;;;;4.00;3.20;;;2.10;81.40;;;;;;6229523;28;20229;-72
2021/12/13 07:46:39;;;;;;;5.13;3.70;;;2.30;79.60;;;;;;6228702;28;20218;-73
2021/12/13 07:49:44;;;;;;;6.63;3.90;;;2.20;81.20;;;;;;6229998;28;20213;-71
2021/12/13 07:52:54;;;;;;;6.20;3.83;;;2.30;80.10;;;;;;6215794;28;20543;-72
2021/12/13 07:55:56;;;;;;;5.03;4.13;;;2.30;80.20;;;;;;6204349;28;20222;-72
2021/12/13 07:59:26;;;;;;;5.77;4.33;;;2.30;79.40;;;;;;6242579;28;20242;-72
2021/12/13 08:02:32;;;;;;;6.93;4.60;;;2.40;80.50;;;;;;6209117;28;20202;-72
2021/12/13 08:05:56;;;;;;;7.57;4.30;;;2.60;81.30;;;;;;6229597;28;20210;-72
2021/12/13 08:09:01;;;;;;;6.53;4.33;;;2.60;79.00;;;;;;6220228;28;20211;-72
2021/12/13 08:12:24;;;;;;;4.93;4.00;;;2.70;77.70;;;;;;6223109;28;20286;-72
2021/12/13 08:15:36;;;;;;;4.70;3.67;;;2.80;78.70;;;;;;6202805;28;20204;-72
2021/12/13 08:18:43;;;;;;;5.40;3.90;;;2.90;78.90;;;;;;6221305;28;20305;-72
2021/12/13 08:21:50;;;;;;;5.97;4.67;;;2.90;79.70;;;;;;6263053;28;20267;-72
2021/12/13 08:24:56;;;;;;;6.40;4.67;;;2.90;78.60;;;;;;6227285;28;20218;-72
2021/12/13 08:28:05;;;;;;;4.93;4.00;;;2.90;79.00;;;;;;6224871;28;20194;-72
2021/12/13 08:31:10;;;;;;;8.17;4.13;;;3.00;79.20;;;;;;6215191;28;20202;-72
2021/12/13 08:34:30;;;;;;;5.97;4.13;;;3.10;77.90;;;;;;6249570;28;20238;-71
2021/12/13 08:37:34;;;;;;;8.00;4.10;;;3.10;78.70;;;;;;6264481;28;20226;-72
2021/12/13 08:40:35;;;;;;;7.37;4.03;;;3.20;79.10;;;;;;6233246;28;20203;-72
2021/12/13 08:43:44;;;;;;;13.03;5.73;;;3.20;78.50;;;;;;6217059;28;20224;-71
2021/12/13 08:46:55;;;;;;;8.33;4.97;;;3.30;75.90;;;;;;6213006;28;20239;-72
2021/12/13 08:49:59;;;;;;;8.40;4.70;;;3.40;76.00;;;;;;6224037;28;20180;-71
2021/12/13 08:53:37;;;;;;;7.90;5.13;;;3.50;76.30;;;;;;6231961;28;20187;-71
2021/12/13 08:56:47;;;;;;;5.83;4.40;;;3.70;76.20;;;;;;6144836;28;20218;-70
2021/12/13 08:59:51;;;;;;;7.93;4.37;;;3.80;75.40;;;;;;6266037;28;20264;-71
2021/12/13 09:02:58;;;;;;;8.53;4.67;;;3.80;73.90;;;;;;6216635;28;20217;-71
2021/12/13 09:06:09;;;;;;;5.70;4.70;;;3.90;73.30;;;;;;6247656;28;20260;-70
2021/12/13 09:09:15;;;;;;;6.63;4.77;;;3.90;74.40;;;;;;6226715;28;20286;-71
2021/12/13 09:12:45;;;;;;;7.73;5.33;;;4.00;72.80;;;;;;6215443;28;20267;-70
2021/12/13 09:15:49;;;;;;;6.80;5.40;;;4.10;72.60;;;;;;6213458;28;20191;-70
2021/12/13 09:19:17;;;;;;;7.13;5.07;;;4.10;72.00;;;;;;6239657;28;20225;-71
2021/12/13 09:22:44;;;;;;;9.10;5.33;;;4.10;72.50;;;;;;6215961;28;20189;-70
2021/12/13 09:25:44;;;;;;;7.70;5.27;;;4.10;72.20;;;;;;6249643;28;20265;-70
2021/12/13 09:28:50;;;;;;;6.03;4.47;;;4.10;72.20;;;;;;6235117;28;20194;-70
2021/12/13 09:31:52;;;;;;;8.83;4.90;;;4.20;72.00;;;;;;6207620;28;20195;-71
2021/12/13 09:35:15;;;;;;;9.20;5.27;;;4.20;71.40;;;;;;6222959;28;20202;-70
2021/12/13 09:38:27;;;;;;;5.97;4.60;;;4.20;73.50;;;;;;6223736;28;20201;-71
2021/12/13 09:41:35;;;;;;;7.10;4.80;;;4.30;73.50;;;;;;6245181;28;20213;-72
2021/12/13 09:45:02;;;;;;;9.17;5.23;;;4.30;73.60;;;;;;6230511;28;20214;-71
2021/12/13 09:48:28;;;;;;;10.80;7.80;;;4.30;72.20;;;;;;6231111;28;20301;-71
2021/12/13 09:51:42;;;;;;;9.50;5.83;;;4.30;71.70;;;;;;6263136;28;20220;-71
2021/12/13 09:55:07;;;;;;;9.27;5.43;;;4.30;71.40;;;;;;6230356;28;20276;-71
2021/12/13 09:58:12;;;;;;;8.70;5.87;;;4.30;73.20;;;;;;6230368;28;20260;-71
2021/12/13 10:01:36;;;;;;;8.60;5.90;;;4.40;72.40;;;;;;6231850;28;20300;-71
2021/12/13 10:04:41;;;;;;;6.40;4.43;;;4.40;72.70;;;;;;6232084;28;20207;-71
2021/12/13 10:07:44;;;;;;;7.77;5.27;;;4.40;72.30;;;;;;6211496;28;20334;-71
2021/12/13 10:11:07;;;;;;;10.80;5.40;;;4.50;74.20;;;;;;6238544;28;20234;-71
2021/12/13 10:14:10;;;;;;;18.43;6.63;;;4.50;73.50;;;;;;6190461;28;20811;-71
2021/12/13 10:17:13;;;;;;;5.13;4.33;;;4.50;71.70;;;;;;6217873;28;20189;-71
2021/12/13 10:20:24;;;;;;;8.93;6.03;;;4.50;71.50;;;;;;6214509;28;20182;-71
2021/12/13 10:23:32;;;;;;;6.73;4.60;;;4.50;71.60;;;;;;6230772;28;20201;-71
2021/12/13 10:26:39;;;;;;;9.43;5.13;;;4.40;73.50;;;;;;6231108;28;20316;-71
2021/12/13 10:29:53;;;;;;;8.93;5.43;;;4.30;72.10;;;;;;6213758;28;20187;-71
2021/12/13 10:32:54;;;;;;;12.37;7.20;;;4.40;71.20;;;;;;6206458;28;20191;-71
2021/12/13 10:35:55;;;;;;;11.80;7.40;;;4.30;73.10;;;;;;6229930;28;20188;-70
2021/12/13 10:39:07;;;;;;;12.00;8.13;;;4.40;74.50;;;;;;6224999;28;20191;-70
2021/12/13 10:42:13;;;;;;;13.10;9.03;;;4.30;74.30;;;;;;6206188;28;20211;-71
2021/12/13 10:45:20;;;;;;;11.83;8.33;;;4.30;73.10;;;;;;6207009;28;20212;-71
2021/12/13 10:48:26;;;;;;;13.30;9.83;;;4.30;73.90;;;;;;6204630;28;20199;-71
2021/12/13 10:51:33;;;;;;;14.40;9.63;;;4.30;74.20;;;;;;6221041;28;20223;-72
2021/12/13 10:54:40;;;;;;;14.20;10.00;;;4.30;74.00;;;;;;6230603;28;20197;-70
2021/12/13 10:57:47;;;;;;;12.33;9.23;;;4.30;74.60;;;;;;6230270;28;20230;-71
2021/12/13 11:01:04;;;;;;;12.00;9.27;;;4.20;73.40;;;;;;6229615;28;20186;-71
2021/12/13 11:04:09;;;;;;;15.47;9.87;;;4.10;73.80;;;;;;6220379;28;20229;-71
2021/12/13 11:07:11;;;;;;;14.80;9.03;;;4.10;73.20;;;;;;6233243;28;20190;-71
2021/12/13 11:10:19;;;;;;;10.70;8.17;;;4.20;75.30;;;;;;6237703;28;20195;-72
2021/12/13 11:13:22;;;;;;;10.40;8.77;;;4.20;73.20;;;;;;6208045;28;20202;-71
2021/12/13 11:16:29;;;;;;;10.47;7.97;;;4.30;73.50;;;;;;6187218;28;20203;-72
2021/12/13 11:19:34;;;;;;;10.00;7.83;;;4.30;73.00;;;;;;6198945;28;20176;-71
2021/12/13 11:22:35;;;;;;;11.47;7.93;;;4.50;72.90;;;;;;6198265;28;20195;-72
2021/12/13 11:25:43;;;;;;;10.40;7.77;;;4.60;71.70;;;;;;6196928;28;20282;-72
2021/12/13 11:28:44;;;;;;;10.77;7.00;;;4.60;70.40;;;;;;6195626;28;20191;-72
2021/12/13 11:31:55;;;;;;;11.37;7.30;;;4.80;71.60;;;;;;6205631;28;20188;-71
2021/12/13 11:35:07;;;;;;;9.30;7.53;;;4.60;70.80;;;;;;6181740;28;20278;-71
2021/12/13 11:38:50;;;;;;;11.87;7.93;;;4.70;70.90;;;;;;6198054;28;20293;-71
2021/12/13 11:42:02;;;;;;;12.53;8.33;;;4.80;71.00;;;;;;6160653;28;20200;-72
2021/12/13 11:45:15;;;;;;;12.53;8.63;;;4.80;71.60;;;;;;6182378;28;20223;-70
2021/12/13 11:48:49;;;;;;;11.70;8.77;;;5.00;72.40;;;;;;6194782;28;20222;-70
2021/12/13 11:52:20;;;;;;;11.20;6.50;;;5.10;70.80;;;;;;6244017;28;20187;-71
2021/12/13 11:55:49;;;;;;;7.63;6.83;;;4.90;70.40;;;;;;6229123;28;20195;-72
2021/12/13 11:59:27;;;;;;;8.57;6.73;;;5.00;70.40;;;;;;6228304;28;20253;-71
2021/12/13 12:02:53;;;;;;;12.23;7.27;;;5.20;70.40;;;;;;6243614;28;20199;-71
2021/12/13 12:06:31;;;;;;;11.07;8.00;;;5.30;70.40;;;;;;6246134;28;20223;-72
2021/12/13 12:09:57;;;;;;;13.57;8.63;;;5.30;69.80;;;;;;6245588;28;20243;-72
2021/12/13 12:13:15;;;;;;;9.57;8.00;;;5.30;68.70;;;;;;6231863;28;20218;-71
2021/12/13 12:16:20;;;;;;;12.40;8.80;;;5.40;70.60;;;;;;6254526;28;20265;-72
2021/12/13 12:19:28;;;;;;;14.00;9.50;;;5.50;68.70;;;;;;6252431;28;20186;-71
2021/12/13 12:22:56;;;;;;;11.27;8.80;;;5.50;70.50;;;;;;6233704;28;20194;-72
2021/12/13 12:25:59;;;;;;;12.87;9.50;;;5.60;70.80;;;;;;6215545;28;20226;-70
2021/12/13 12:29:03;;;;;;;14.40;8.93;;;5.60;70.40;;;;;;6224090;28;20192;-71
2021/12/13 12:32:12;;;;;;;15.90;9.63;;;5.50;68.90;;;;;;6195512;28;20202;-69
2021/12/13 12:35:20;;;;;;;11.03;8.50;;;5.50;69.50;;;;;;6186390;28;20223;-70
2021/12/13 12:38:56;;;;;;;15.17;8.93;;;5.30;69.10;;;;;;6215779;28;20234;-71
2021/12/13 12:42:19;;;;;;;14.43;9.33;;;5.40;68.50;;;;;;6212257;28;20290;-70
2021/12/13 12:45:34;;;;;;;15.93;8.80;;;5.10;69.50;;;;;;6210695;28;20219;-70
2021/12/13 12:48:37;;;;;;;12.47;8.57;;;5.20;68.70;;;;;;6220052;28;20218;-71
2021/12/13 12:51:38;;;;;;;12.20;8.20;;;5.10;69.90;;;;;;6229226;28;20202;-71
2021/12/13 12:54:39;;;;;;;17.80;9.80;;;5.00;69.80;;;;;;6194908;28;20190;-70
2021/12/13 12:57:40;;;;;;;13.43;8.67;;;5.00;71.20;;;;;;6195542;28;20296;-71
2021/12/13 13:00:43;;;;;;;12.97;8.87;;;5.10;68.60;;;;;;6226000;28;20269;-70
2021/12/13 13:03:44;;;;;;;14.50;8.13;;;5.10;69.00;;;;;;6227267;28;20253;-70
2021/12/13 13:07:05;;;;;;;14.87;9.30;;;5.10;69.30;;;;;;6206983;28;20241;-71
2021/12/13 13:13:25;;;;;;;14.17;10.13;;;5.10;71.30;;;;;;6192018;28;20204;-68
2021/12/13 13:16:35;;;;;;;13.93;8.93;;;5.00;71.10;;;;;;6206589;28;20676;-69
2021/12/13 13:19:39;;;;;;;13.37;9.37;;;5.00;71.90;;;;;;6243267;28;20245;-68
2021/12/13 13:22:43;;;;;;;12.93;9.70;;;4.80;71.00;;;;;;6188948;28;20200;-69
2021/12/13 13:25:51;;;;;;;15.93;9.60;;;4.90;70.40;;;;;;6202237;28;20220;-69
2021/12/13 13:28:54;;;;;;;16.23;9.23;;;4.90;70.20;;;;;;6202330;28;20215;-68
2021/12/13 13:32:00;;;;;;;9.70;8.13;;;5.00;71.20;;;;;;6229756;28;20194;-69
2021/12/13 13:35:03;;;;;;;9.20;6.87;;;5.20;71.60;;;;;;6225260;28;20268;-69
2021/12/13 13:38:12;;;;;;;11.10;8.47;;;5.40;70.60;;;;;;6242588;28;20302;-69
2021/12/13 13:41:20;;;;;;;13.77;9.40;;;5.80;70.20;;;;;;6225902;28;20199;-71
2021/12/13 13:44:24;;;;;;;10.10;7.27;;;5.80;69.10;;;;;;6240910;28;20290;-71
2021/12/13 13:47:29;;;;;;;12.47;8.37;;;6.00;66.50;;;;;;6225838;28;20242;-70
2021/12/13 13:50:48;;;;;;;10.73;7.93;;;6.30;65.10;;;;;;6209973;28;20190;-71
2021/12/13 13:53:53;;;;;;;10.47;8.07;;;6.30;65.30;;;;;;6229228;28;20207;-70
2021/12/13 13:56:54;;;;;;;13.27;9.23;;;6.40;64.70;;;;;;6222378;28;20203;-70
2021/12/13 13:59:57;;;;;;;13.63;9.03;;;6.40;64.00;;;;;;6216009;28;20191;-70
2021/12/13 14:02:58;;;;;;;12.27;9.10;;;6.30;65.40;;;;;;6217610;28;20326;-70
2021/12/13 14:05:59;;;;;;;15.80;9.80;;;6.40;64.30;;;;;;6206439;28;20246;-69
2021/12/13 14:09:04;;;;;;;;;;;6.30;66.90;;;;;;6225585;28;20230;-70
2021/12/13 14:12:08;;;;;;;;;;;6.20;66.80;;;;;;6225667;28;19916;-69
2021/12/13 14:15:09;;;;;;;;;;;6.10;68.70;;;;;;6209543;28;19909;-69
2021/12/13 14:18:15;;;;;;;;;;;5.90;70.10;;;;;;6235694;28;19921;-69
2021/12/13 14:21:18;;;;;;;;;;;5.80;69.30;;;;;;6242670;28;19909;-69
2021/12/13 14:24:28;;;;;;;;;;;5.80;69.20;;;;;;6242240;28;19909;-69
2021/12/13 14:27:29;;;;;;;;;;;5.60;70.40;;;;;;6235410;28;19913;-69
2021/12/13 14:30:33;;;;;;;;;;;5.60;69.30;;;;;;6230052;28;19913;-69
2021/12/13 14:33:36;;;;;;;;;;;5.40;69.40;;;;;;6221601;28;19913;-69
2021/12/13 14:36:46;;;;;;;;;;;5.30;70.80;;;;;;6234089;28;19916;-69
2021/12/13 14:39:50;;;;;;;;;;;5.00;72.60;;;;;;6252214;28;19919;-68
2021/12/13 14:42:50;;;;;;;;;;;4.90;72.60;;;;;;6206771;28;19913;-69
2021/12/13 14:45:52;;;;;;;;;;;4.80;74.30;;;;;;6226461;28;19917;-68
2021/12/13 14:49:01;;;;;;;;;;;4.70;73.00;;;;;;6211101;28;19917;-69
2021/12/13 14:52:04;;;;;;;;;;;4.60;74.50;;;;;;6206693;28;19913;-69
2021/12/13 14:55:08;;;;;;;14.47;10.50;;;4.50;73.00;;;;;;6196489;28;24457;-69
2021/12/13 14:58:12;;;;;;;14.43;9.67;;;4.30;75.90;;;;;;6214130;28;20811;-68
2021/12/13 15:01:18;;;;;;;12.17;9.80;;;4.20;76.00;;;;;;6210358;28;20198;-69
2021/12/13 15:04:26;;;;;;;16.57;11.07;;;4.00;77.30;;;;;;6224734;28;20282;-69
2021/12/13 15:07:31;;;;;;;13.13;10.97;;;4.00;77.80;;;;;;6223415;28;20191;-69
2021/12/13 15:10:47;;;;;;;17.63;10.50;;;3.90;76.80;;;;;;6215251;28;20198;-69
2021/12/13 15:13:55;;;;;;;15.30;8.97;;;3.90;76.80;;;;;;6222722;28;20188;-69
2021/12/13 15:17:01;;;;;;;15.37;11.07;;;3.90;78.80;;;;;;6211663;28;20201;-69
2021/12/13 15:20:12;;;;;;;12.97;9.33;;;3.80;77.70;;;;;;6224317;28;20202;-70
2021/12/13 15:23:25;;;;;;;13.93;9.17;;;3.70;79.00;;;;;;6207370;28;20623;-70
2021/12/13 15:26:34;;;;;;;14.90;9.60;;;3.70;77.50;;;;;;6222341;28;20260;-70
2021/12/13 15:29:36;;;;;;;13.10;9.70;;;3.70;79.00;;;;;;6239135;28;20226;-69
2021/12/13 15:32:43;;;;;;;16.53;10.20;;;3.50;79.60;;;;;;6207567;28;20183;-77
2021/12/13 15:35:47;;;;;;;14.67;9.20;;;3.40;80.30;;;;;;6207566;28;20191;-74
2021/12/13 15:38:48;;;;;;;13.23;8.97;;;3.40;78.80;;;;;;6223906;28;20263;-75
2021/12/13 15:41:53;;;;;;;17.67;10.13;;;3.40;79.00;;;;;;6207262;28;20238;-71
2021/12/13 15:45:10;;;;;;;14.93;10.27;;;3.30;80.20;;;;;;6240187;28;20223;-72
2021/12/13 15:51:37;;;;;;;11.80;9.63;;;3.20;81.10;;;;;;6261312;28;20276;-75
2021/12/13 15:54:42;;;;;;;10.57;8.27;;;3.10;80.20;;;;;;6230600;28;20719;-74
2021/12/13 15:57:43;;;;;;;13.83;9.50;;;3.00;80.80;;;;;;6226459;28;20237;-74
2021/12/13 16:00:45;;;;;;;12.60;9.10;;;3.00;80.50;;;;;;6215163;28;20220;-74
2021/12/13 16:03:55;;;;;;;12.40;10.07;;;2.90;81.60;;;;;;6230375;28;20225;-73
2021/12/13 16:07:05;;;;;;;13.23;9.37;;;2.80;82.10;;;;;;6231158;28;20297;-73
2021/12/13 16:10:11;;;;;;;15.27;10.07;;;2.80;82.20;;;;;;6231520;28;20179;-75
2021/12/13 16:13:12;;;;;;;12.33;9.53;;;2.80;82.20;;;;;;6231365;28;20183;-75
2021/12/13 16:16:26;;;;;;;14.27;9.77;;;2.80;81.90;;;;;;6227013;28;20249;-74
2021/12/13 16:19:33;;;;;;;12.47;10.10;;;2.70;82.10;;;;;;6201241;28;20195;-74
2021/12/13 16:22:40;;;;;;;13.00;9.73;;;2.60;82.80;;;;;;6222978;28;20238;-71
2021/12/13 16:25:57;;;;;;;14.60;9.53;;;2.50;83.00;;;;;;6227394;28;20215;-74
2021/12/13 16:28:58;;;;;;;13.47;9.57;;;2.60;82.40;;;;;;6220007;28;20196;-75
2021/12/13 16:31:59;;;;;;;15.97;9.57;;;2.40;83.60;;;;;;6242640;28;20325;-75
2021/12/13 16:35:00;;;;;;;12.33;10.03;;;2.40;83.20;;;;;;6230731;28;20198;-75
2021/12/13 16:38:04;;;;;;;10.73;8.80;;;2.40;83.80;;;;;;6206234;28;20199;-74
2021/12/13 16:41:11;;;;;;;10.83;8.43;;;2.40;82.90;;;;;;6231708;28;20208;-75
2021/12/13 16:44:16;;;;;;;15.70;10.53;;;2.40;83.00;;;;;;6233991;28;20190;-75
2021/12/13 16:47:20;;;;;;;14.40;12.77;;;2.40;83.20;;;;;;6218356;28;20197;-75
2021/12/13 16:50:22;;;;;;;11.63;9.23;;;2.40;82.60;;;;;;6234358;28;20271;-75
2021/12/13 16:53:23;;;;;;;12.47;9.20;;;2.30;83.30;;;;;;6212952;28;20195;-75